Time;durP1;ratioP1;P1;durP2;ratioP2;P2;SDS_P1;SDS_P2;PMS_P1;PMS_P2;Temp;Humidity;BMP_temperature;BMP_pressure;BME280_temperature;BME280_humidity;BME280_pressure;Samples;Min_cycle;Max_cycle;Signal;HPM_P1;HPM_P2
2022/06/10 00:01:50;;;;;;;;;;;24.60;46.50;;;;;;1607149;73;580;-72
2022/06/10 00:03:51;;;;;;;;;;;24.60;46.50;;;;;;1596833;73;1384;-71
2022/06/10 00:05:54;;;;;;;;;;;24.60;46.50;;;;;;1591641;73;1202;-72
2022/06/10 00:07:56;;;;;;;;;;;24.60;46.40;;;;;;1607647;73;793;-72
2022/06/10 00:09:58;;;;;;;;;;;24.60;46.50;;;;;;1610627;73;731;-72
2022/06/10 00:12:00;;;;;;;;;;;24.60;46.50;;;;;;1597980;73;1939;-72
2022/06/10 00:14:02;;;;;;;;;;;24.60;46.50;;;;;;1600633;74;673;-72
2022/06/10 00:16:04;;;;;;;;;;;24.60;46.60;;;;;;1611642;73;1122;-74
2022/06/10 00:18:06;;;;;;;;;;;24.60;46.60;;;;;;1598588;73;1404;-73
2022/06/10 00:20:09;;;;;;;;;;;24.60;46.60;;;;;;1605734;73;764;-73
2022/06/10 00:22:11;;;;;;;;;;;24.60;46.70;;;;;;1612561;73;707;-73
2022/06/10 00:24:13;;;;;;;;;;;24.60;46.70;;;;;;1613648;73;850;-71
2022/06/10 00:26:15;;;;;;;;;;;24.60;46.70;;;;;;1612018;73;1119;-73
2022/06/10 00:28:17;;;;;;;;;;;24.60;46.70;;;;;;1612116;73;788;-73
2022/06/10 00:30:20;;;;;;;;;;;24.60;46.70;;;;;;1609313;73;684;-73
2022/06/10 00:32:23;;;;;;;;;;;24.60;46.70;;;;;;1609213;73;1909;-73
2022/06/10 00:34:24;;;;;;;;;;;24.60;46.70;;;;;;1591439;73;795;-72
2022/06/10 00:36:26;;;;;;;;;;;24.50;46.70;;;;;;1595606;73;1120;-72
2022/06/10 00:38:28;;;;;;;;;;;24.70;46.80;;;;;;1610968;73;802;-72
2022/06/10 00:40:34;;;;;;;;;;;24.60;46.70;;;;;;1614746;73;701;-72
2022/06/10 00:42:37;;;;;;;;;;;24.50;46.60;;;;;;1611561;73;1106;-73
2022/06/10 00:44:41;;;;;;;;;;;24.50;46.70;;;;;;1603311;73;682;-71
2022/06/10 00:47:02;;;;;;;;;;;24.50;46.70;;;;;;1599162;73;1403;-72
2022/06/10 00:49:09;;;;;;;;;;;24.60;46.60;;;;;;1613532;73;826;-58
2022/06/10 00:51:12;;;;;;;;;;;24.50;46.60;;;;;;1610661;72;710;-57
2022/06/10 00:53:14;;;;;;;;;;;24.50;46.60;;;;;;1612195;72;1775;-59
2022/06/10 00:55:16;;;;;;;;;;;24.50;46.60;;;;;;1615253;73;708;-60
2022/06/10 00:57:20;;;;;;;;;;;24.50;46.70;;;;;;1576587;73;1132;-59
2022/06/10 00:59:24;;;;;;;;;;;24.50;46.70;;;;;;1611789;72;708;-59
2022/06/10 01:01:26;;;;;;;;;;;24.60;46.80;;;;;;1603203;72;1811;-58
2022/06/10 01:03:27;;;;;;;;;;;24.60;46.90;;;;;;1612786;72;787;-57
2022/06/10 01:05:29;;;;;;;;;;;24.60;46.90;;;;;;1602019;72;1099;-59
2022/06/10 01:07:32;;;;;;;;;;;24.60;46.80;;;;;;1612189;72;739;-57
2022/06/10 01:09:34;;;;;;;;;;;24.60;46.90;;;;;;1587339;72;803;-59
2022/06/10 01:11:40;;;;;;;;;;;24.60;46.90;;;;;;1613316;72;1932;-57
2022/06/10 01:13:52;;;;;;;;;;;24.60;46.90;;;;;;1612836;72;1846;-60
2022/06/10 01:15:56;;;;;;;;;;;24.50;46.90;;;;;;1606269;72;1113;-59
2022/06/10 01:18:11;;;;;;;;;;;24.60;46.90;;;;;;1594146;72;728;-60
2022/06/10 01:20:15;;;;;;;;;;;24.60;47.00;;;;;;1605633;72;1970;-57
2022/06/10 01:22:37;;;;;;;;;;;24.60;47.00;;;;;;1604925;72;1919;-60
2022/06/10 01:24:57;;;;;;;;;;;24.60;47.00;;;;;;1619305;72;671;-59
2022/06/10 01:29:25;;;;;;;;;;;24.50;47.00;;;;;;1614486;72;1623;-57
2022/06/10 01:31:31;;;;;;;;;;;24.50;47.00;;;;;;1612014;72;1920;-59
2022/06/10 01:33:47;;;;;;;;;;;24.60;47.00;;;;;;1607642;72;700;-59
2022/06/10 01:35:54;;;;;;;;;;;24.60;46.90;;;;;;1601981;72;1319;-59
2022/06/10 01:38:00;;;;;;;;;;;24.60;46.90;;;;;;1603916;72;2071;-59
2022/06/10 01:40:07;;;;;;;;;;;24.70;46.90;;;;;;1599724;72;1799;-57
2022/06/10 01:42:10;;;;;;;;;;;24.60;46.80;;;;;;1615475;72;1542;-56
2022/06/10 01:44:17;;;;;;;;;;;24.50;46.80;;;;;;1614126;72;757;-59
2022/06/10 01:46:25;;;;;;;;;;;24.50;47.10;;;;;;1613616;72;1126;-59
2022/06/10 01:48:27;;;;;;;;;;;24.50;47.10;;;;;;1626646;72;1672;-59
2022/06/10 01:50:34;;;;;;;;;;;24.50;47.20;;;;;;1614013;72;1855;-57
2022/06/10 01:52:40;;;;;;;;;;;24.50;47.10;;;;;;1611651;72;1942;-59
2022/06/10 01:54:44;;;;;;;;;;;24.50;47.10;;;;;;1609601;72;1139;-58
2022/06/10 01:56:46;;;;;;;;;;;24.50;47.20;;;;;;1599588;72;1555;-59
2022/06/10 01:58:49;;;;;;;;;;;24.50;47.30;;;;;;1598366;72;744;-56
2022/06/10 02:00:53;;;;;;;;;;;24.50;47.20;;;;;;1615955;72;784;-58
2022/06/10 02:02:59;;;;;;;;;;;24.40;47.10;;;;;;1614392;72;959;-57
2022/06/10 02:05:02;;;;;;;;;;;24.50;47.30;;;;;;1614317;72;1768;-58
2022/06/10 02:07:18;;;;;;;;;;;24.50;47.30;;;;;;1605797;72;1860;-58
2022/06/10 02:09:21;;;;;;;;;;;24.40;47.20;;;;;;1612898;72;679;-60
2022/06/10 02:11:25;;;;;;;;;;;24.40;47.10;;;;;;1610445;72;1627;-57
2022/06/10 02:13:28;;;;;;;;;;;24.40;47.20;;;;;;1611352;72;1914;-57
2022/06/10 02:15:34;;;;;;;;;;;24.40;47.10;;;;;;1617211;72;1164;-57
2022/06/10 02:17:37;;;;;;;;;;;24.40;47.10;;;;;;1619242;72;730;-58
2022/06/10 02:19:40;;;;;;;;;;;24.40;47.10;;;;;;1609334;72;709;-59
2022/06/10 02:21:43;;;;;;;;;;;24.40;47.20;;;;;;1601555;72;716;-58
2022/06/10 02:23:46;;;;;;;;;;;24.40;47.20;;;;;;1609598;72;1799;-59
2022/06/10 02:25:49;;;;;;;;;;;24.40;47.10;;;;;;1613616;72;1677;-59
2022/06/10 02:27:55;;;;;;;;;;;24.40;47.10;;;;;;1617746;72;757;-58
2022/06/10 02:29:59;;;;;;;;;;;24.40;47.20;;;;;;1612105;72;724;-59
2022/06/10 02:32:01;;;;;;;;;;;24.40;47.30;;;;;;1616261;72;1936;-56
2022/06/10 02:34:03;;;;;;;;;;;24.40;47.30;;;;;;1614072;72;794;-57
2022/06/10 02:36:06;;;;;;;;;;;24.40;47.30;;;;;;1603550;72;1147;-58
2022/06/10 02:38:19;;;;;;;;;;;24.40;47.20;;;;;;1607244;72;1540;-60
2022/06/10 02:40:28;;;;;;;;;;;24.50;47.30;;;;;;1593321;72;1412;-58
2022/06/10 02:42:32;;;;;;;;;;;24.40;47.20;;;;;;1616899;72;793;-59
2022/06/10 02:44:36;;;;;;;;;;;24.40;47.30;;;;;;1605728;72;683;-58
2022/06/10 02:46:43;;;;;;;;;;;24.40;47.30;;;;;;1621021;72;1113;-56
2022/06/10 02:48:52;;;;;;;;;;;24.50;47.30;;;;;;1593032;72;1691;-58
2022/06/10 02:50:54;;;;;;;;;;;24.50;47.30;;;;;;1618755;72;670;-57
2022/06/10 02:52:56;;;;;;;;;;;24.50;47.30;;;;;;1614321;72;1932;-56
2022/06/10 02:54:58;;;;;;;;;;;24.50;47.40;;;;;;1610204;72;721;-58
2022/06/10 02:57:01;;;;;;;;;;;24.50;47.30;;;;;;1599170;72;1142;-58
2022/06/10 03:01:26;;;;;;;;;;;24.50;47.40;;;;;;1609854;72;1909;-58
2022/06/10 03:03:29;;;;;;;;;;;24.50;47.30;;;;;;1609542;72;740;-57
2022/06/10 03:05:33;;;;;;;;;;;24.50;47.30;;;;;;1594274;73;1122;-58
2022/06/10 03:07:46;;;;;;;;;;;24.50;47.20;;;;;;1617136;72;1528;-59
2022/06/10 03:10:05;;;;;;;;;;;24.50;47.30;;;;;;1605659;72;2278;-58
2022/06/10 03:12:18;;;;;;;;;;;24.50;47.40;;;;;;1602836;72;1924;-59
2022/06/10 03:14:21;;;;;;;;;;;24.50;47.30;;;;;;1604933;72;1143;-60
2022/06/10 03:16:28;;;;;;;;;;;24.50;47.30;;;;;;1592670;72;1900;-59
2022/06/10 03:18:31;;;;;;;;;;;24.40;47.20;;;;;;1608044;72;730;-58
2022/06/10 03:20:40;;;;;;;;;;;24.50;47.30;;;;;;1611838;72;1528;-59
2022/06/10 03:22:43;;;;;;;;;;;24.60;47.20;;;;;;1618688;72;743;-59
2022/06/10 03:24:49;;;;;;;;;;;24.50;47.30;;;;;;1611643;72;693;-59
2022/06/10 03:26:53;;;;;;;;;;;24.50;47.30;;;;;;1573736;73;1093;-57
2022/06/10 03:28:57;;;;;;;;;;;24.50;47.30;;;;;;1612495;72;708;-60
2022/06/10 03:31:12;;;;;;;;;;;24.50;47.30;;;;;;1609984;72;809;-60
2022/06/10 03:33:16;;;;;;;;;;;24.50;47.20;;;;;;1603867;72;1919;-60
2022/06/10 03:35:19;;;;;;;;;;;24.50;47.30;;;;;;1603647;72;1806;-58
2022/06/10 03:37:22;;;;;;;;;;;24.50;47.10;;;;;;1611552;72;1111;-60
2022/06/10 03:39:24;;;;;;;;;;;24.50;47.40;;;;;;1616323;72;834;-59
2022/06/10 03:41:30;;;;;;;;;;;24.50;47.30;;;;;;1608416;72;699;-59
2022/06/10 03:43:34;;;;;;;;;;;24.60;47.30;;;;;;1613068;72;669;-60
2022/06/10 03:45:37;;;;;;;;;;;24.50;47.20;;;;;;1616181;72;1845;-59
2022/06/10 03:47:39;;;;;;;;;;;24.50;47.30;;;;;;1617602;72;738;-58
2022/06/10 03:49:42;;;;;;;;;;;24.50;47.30;;;;;;1613633;72;1520;-60
2022/06/10 03:51:44;;;;;;;;;;;24.50;47.30;;;;;;1618768;72;806;-60
2022/06/10 03:53:46;;;;;;;;;;;24.50;47.20;;;;;;1608906;72;1953;-59
2022/06/10 03:55:48;;;;;;;;;;;24.50;47.20;;;;;;1589410;72;1180;-59
2022/06/10 03:57:50;;;;;;;;;;;24.50;47.20;;;;;;1617680;72;739;-58
2022/06/10 03:59:52;;;;;;;;;;;24.50;47.20;;;;;;1605729;72;778;-57
2022/06/10 04:01:53;;;;;;;;;;;24.50;47.10;;;;;;1624068;72;779;-60
2022/06/10 04:03:55;;;;;;;;;;;24.50;47.30;;;;;;1605035;72;1678;-60
2022/06/10 04:05:57;;;;;;;;;;;24.50;47.10;;;;;;1614038;72;1146;-60
2022/06/10 04:07:59;;;;;;;;;;;24.50;47.10;;;;;;1614256;72;861;-59
2022/06/10 04:10:01;;;;;;;;;;;24.50;47.10;;;;;;1610459;72;660;-57
2022/06/10 04:12:03;;;;;;;;;;;24.50;47.00;;;;;;1610108;72;840;-58
2022/06/10 04:14:05;;;;;;;;;;;24.60;47.10;;;;;;1615503;72;1921;-57
2022/06/10 04:16:07;;;;;;;;;;;24.50;47.00;;;;;;1614882;72;1134;-57
2022/06/10 04:18:09;;;;;;;;;;;24.50;47.00;;;;;;1614516;72;1661;-60
2022/06/10 04:20:17;;;;;;;;;;;24.60;46.90;;;;;;1611435;72;746;-60
2022/06/10 04:22:19;;;;;;;;;;;24.60;46.80;;;;;;1615371;72;775;-57
2022/06/10 04:24:21;;;;;;;;;;;24.50;46.90;;;;;;1608749;72;733;-60
2022/06/10 04:26:23;;;;;;;;;;;24.60;46.90;;;;;;1614145;72;1172;-60
2022/06/10 04:28:25;;;;;;;;;;;24.50;46.90;;;;;;1612070;72;715;-60
2022/06/10 04:30:32;;;;;;;;;;;24.60;46.90;;;;;;1614000;72;792;-60
2022/06/10 04:32:34;;;;;;;;;;;24.60;46.80;;;;;;1608843;72;1918;-60
2022/06/10 04:34:36;;;;;;;;;;;24.60;46.80;;;;;;1616693;72;751;-58
2022/06/10 04:36:39;;;;;;;;;;;24.60;46.80;;;;;;1616137;72;1134;-59
2022/06/10 04:38:40;;;;;;;;;;;24.60;46.90;;;;;;1612088;72;757;-58
2022/06/10 04:40:42;;;;;;;;;;;24.60;46.80;;;;;;1613125;72;743;-61
2022/06/10 04:42:45;;;;;;;;;;;24.70;47.00;;;;;;1615603;72;766;-59
2022/06/10 04:44:47;;;;;;;;;;;24.60;46.80;;;;;;1612110;72;1522;-61
2022/06/10 04:46:49;;;;;;;;;;;24.60;46.80;;;;;;1610179;72;1190;-60
2022/06/10 04:48:51;;;;;;;;;;;24.50;47.00;;;;;;1613354;72;852;-61
2022/06/10 04:50:53;;;;;;;;;;;24.50;47.10;;;;;;1609350;72;829;-60
2022/06/10 04:52:55;;;;;;;;;;;24.50;47.10;;;;;;1611808;73;1949;-58
2022/06/10 04:54:57;;;;;;;;;;;24.50;47.10;;;;;;1613851;72;735;-58
2022/06/10 04:56:59;;;;;;;;;;;24.40;47.00;;;;;;1614254;72;1173;-61
2022/06/10 04:59:01;;;;;;;;;;;24.40;47.00;;;;;;1596400;72;1514;-60
2022/06/10 05:01:02;;;;;;;;;;;24.40;47.00;;;;;;1612591;72;761;-59
2022/06/10 05:03:05;;;;;;;;;;;24.40;47.00;;;;;;1609157;72;696;-60
2022/06/10 05:05:07;;;;;;;;;;;24.40;47.00;;;;;;1614426;72;718;-59
2022/06/10 05:07:09;;;;;;;;;;;24.40;47.00;;;;;;1611995;72;1044;-59
2022/06/10 05:09:10;;;;;;;;;;;24.40;47.00;;;;;;1612981;72;785;-58
2022/06/10 05:11:12;;;;;;;;;;;24.40;47.00;;;;;;1618832;72;774;-60
2022/06/10 05:13:16;;;;;;;;;;;24.40;47.00;;;;;;1613293;72;1909;-60
2022/06/10 05:15:23;;;;;;;;;;;24.40;46.90;;;;;;1606639;72;805;-60
2022/06/10 05:17:22;;;;;;;;;;;24.30;46.80;;;;;;1608210;72;1750;-58
2022/06/10 05:19:24;;;;;;;;;;;24.40;46.80;;;;;;1607930;72;781;-58
2022/06/10 05:21:26;;;;;;;;;;;24.30;46.80;;;;;;1613071;72;789;-58
2022/06/10 05:23:28;;;;;;;;;;;24.30;46.80;;;;;;1607589;72;782;-59
2022/06/10 05:25:30;;;;;;;;;;;24.40;46.80;;;;;;1600437;72;1114;-60
2022/06/10 05:27:32;;;;;;;;;;;24.40;46.70;;;;;;1620581;72;1585;-58
2022/06/10 05:29:34;;;;;;;;;;;24.30;46.70;;;;;;1611335;72;694;-57
2022/06/10 05:31:36;;;;;;;;;;;24.30;46.60;;;;;;1612179;72;805;-60
2022/06/10 05:35:57;;;;;;;;;;;24.30;46.60;;;;;;1612885;72;1660;-58
2022/06/10 05:38:00;;;;;;;;;;;24.30;46.50;;;;;;1623551;72;857;-57
2022/06/10 05:40:01;;;;;;;;;;;24.20;46.40;;;;;;1624008;72;742;-56
2022/06/10 05:42:06;;;;;;;;;;;24.20;46.40;;;;;;1620984;72;1508;-56
2022/06/10 05:44:09;;;;;;;;;;;24.20;46.40;;;;;;1612657;72;711;-57
2022/06/10 05:46:11;;;;;;;;;;;24.20;46.30;;;;;;1619662;72;1149;-58
2022/06/10 05:48:13;;;;;;;;;;;24.20;46.30;;;;;;1614462;72;777;-57
2022/06/10 05:50:17;;;;;;;;;;;24.20;46.30;;;;;;1613087;72;811;-57
2022/06/10 05:52:19;;;;;;;;;;;24.20;46.20;;;;;;1616328;72;716;-56
2022/06/10 05:54:21;;;;;;;;;;;24.20;46.20;;;;;;1612820;72;1914;-56
2022/06/10 05:56:23;;;;;;;;;;;24.20;46.20;;;;;;1611835;72;1442;-57
2022/06/10 05:58:25;;;;;;;;;;;24.20;46.20;;;;;;1617170;72;804;-57
2022/06/10 06:00:27;;;;;;;;;;;24.20;46.30;;;;;;1630235;72;757;-58
2022/06/10 06:02:29;;;;;;;;;;;24.10;46.30;;;;;;1620544;71;698;-58
2022/06/10 06:04:31;;;;;;;;;;;24.10;46.30;;;;;;1621453;72;724;-58
2022/06/10 06:06:33;;;;;;;;;;;24.20;46.30;;;;;;1624326;72;1129;-59
2022/06/10 06:08:35;;;;;;;;;;;24.20;46.30;;;;;;1631666;72;757;-58
2022/06/10 06:10:37;;;;;;;;;;;24.10;46.40;;;;;;1616446;72;1566;-58
2022/06/10 06:12:39;;;;;;;;;;;24.10;46.50;;;;;;1624668;72;729;-57
2022/06/10 06:14:41;;;;;;;;;;;24.10;46.50;;;;;;1622262;72;1962;-57
2022/06/10 06:16:44;;;;;;;;;;;24.20;46.60;;;;;;1599944;72;1109;-56
2022/06/10 06:18:48;;;;;;;;;;;24.20;46.60;;;;;;1608588;72;789;-59
2022/06/10 06:20:49;;;;;;;;;;;24.20;46.60;;;;;;1609171;72;743;-60
2022/06/10 06:22:53;;;;;;;;;;;24.20;46.50;;;;;;1610910;72;775;-59
2022/06/10 06:24:55;;;;;;;;;;;24.10;46.50;;;;;;1612459;72;1673;-58
2022/06/10 06:26:57;;;;;;;;;;;24.10;46.50;;;;;;1616934;72;1142;-57
2022/06/10 06:28:59;;;;;;;;;;;24.20;46.50;;;;;;1620124;72;719;-60
2022/06/10 06:31:01;;;;;;;;;;;24.10;46.50;;;;;;1601557;72;923;-58
2022/06/10 06:33:04;;;;;;;;;;;24.10;46.50;;;;;;1602563;72;743;-59
2022/06/10 06:35:07;;;;;;;;;;;24.10;46.50;;;;;;1615933;72;1959;-57
2022/06/10 06:37:10;;;;;;;;;;;24.20;46.50;;;;;;1614913;72;1465;-57
2022/06/10 06:39:12;;;;;;;;;;;24.10;46.50;;;;;;1615533;72;760;-60
2022/06/10 06:41:14;;;;;;;;;;;24.00;46.30;;;;;;1609356;72;722;-60
2022/06/10 06:43:16;;;;;;;;;;;24.10;46.50;;;;;;1611029;72;717;-58
2022/06/10 06:45:18;;;;;;;;;;;24.00;46.30;;;;;;1610585;72;862;-58
2022/06/10 06:47:20;;;;;;;;;;;24.10;46.40;;;;;;1610520;72;1099;-58
2022/06/10 06:49:23;;;;;;;;;;;24.10;46.40;;;;;;1617175;72;812;-60
2022/06/10 06:51:24;;;;;;;;;;;24.00;46.30;;;;;;1614164;72;1462;-57
2022/06/10 06:53:26;;;;;;;;;;;24.00;46.30;;;;;;1613278;72;1920;-58
2022/06/10 06:55:28;;;;;;;;;;;24.10;46.40;;;;;;1607207;72;1195;-60
2022/06/10 06:57:30;;;;;;;;;;;24.10;46.40;;;;;;1612787;72;771;-58
2022/06/10 06:59:33;;;;;;;;;;;24.00;46.30;;;;;;1615386;72;755;-58
2022/06/10 07:01:35;;;;;;;;;;;24.00;46.20;;;;;;1617033;72;775;-59
2022/06/10 07:03:37;;;;;;;;;;;24.00;46.20;;;;;;1608034;72;1095;-60
2022/06/10 07:05:39;;;;;;;;;;;24.10;46.30;;;;;;1613711;72;1571;-59
2022/06/10 07:07:41;;;;;;;;;;;24.00;46.20;;;;;;1615990;72;743;-58
2022/06/10 07:09:43;;;;;;;;;;;24.00;46.20;;;;;;1601963;72;765;-57
2022/06/10 07:11:45;;;;;;;;;;;24.00;46.20;;;;;;1616077;72;788;-57
2022/06/10 07:13:47;;;;;;;;;;;24.10;46.30;;;;;;1612654;72;1933;-60
2022/06/10 07:15:49;;;;;;;;;;;24.00;46.10;;;;;;1615425;72;1168;-61
2022/06/10 07:17:51;;;;;;;;;;;24.00;46.20;;;;;;1614385;72;760;-60
2022/06/10 07:19:58;;;;;;;;;;;24.00;46.20;;;;;;1609355;72;1520;-60
2022/06/10 07:21:56;;;;;;;;;;;24.00;46.10;;;;;;1610596;72;1713;-60
2022/06/10 07:23:58;;;;;;;;;;;24.00;46.10;;;;;;1604094;72;749;-58
2022/06/10 07:26:02;;;;;;;;;;;24.00;46.10;;;;;;1618508;72;1166;-58
2022/06/10 07:28:04;;;;;;;;;;;24.00;46.00;;;;;;1625041;72;759;-59
2022/06/10 07:30:06;;;;;;;;;;;24.10;46.20;;;;;;1623078;72;761;-57
2022/06/10 07:32:08;;;;;;;;;;;24.10;46.10;;;;;;1619931;72;762;-58
2022/06/10 07:34:11;;;;;;;;;;;24.00;45.90;;;;;;1610542;72;1927;-59
2022/06/10 07:36:12;;;;;;;;;;;24.10;46.10;;;;;;1613970;72;1075;-60
2022/06/10 07:38:14;;;;;;;;;;;24.10;46.10;;;;;;1614630;72;789;-60
2022/06/10 07:42:34;;;;;;;;;;;24.10;46.00;;;;;;1584955;72;1047;-61
2022/06/10 07:44:37;;;;;;;;;;;24.10;46.00;;;;;;1608489;72;731;-58
2022/06/10 07:46:38;;;;;;;;;;;24.00;45.90;;;;;;1615624;72;1138;-60
2022/06/10 07:48:40;;;;;;;;;;;24.10;46.00;;;;;;1611399;72;1347;-57
2022/06/10 07:50:43;;;;;;;;;;;24.10;46.00;;;;;;1608002;72;784;-57
2022/06/10 07:52:45;;;;;;;;;;;24.10;45.90;;;;;;1605135;72;706;-59
2022/06/10 07:54:46;;;;;;;;;;;24.10;45.80;;;;;;1615901;72;1950;-59
2022/06/10 07:56:48;;;;;;;;;;;24.00;45.60;;;;;;1604073;72;1146;-61
2022/06/10 07:58:50;;;;;;;;;;;24.10;45.80;;;;;;1614056;72;701;-60
2022/06/10 08:00:52;;;;;;;;;;;24.10;45.70;;;;;;1620606;72;755;-61
2022/06/10 08:02:54;;;;;;;;;;;24.10;45.70;;;;;;1615525;72;1493;-60
2022/06/10 08:04:56;;;;;;;;;;;24.00;45.60;;;;;;1615693;72;738;-58
2022/06/10 08:06:58;;;;;;;;;;;24.10;45.70;;;;;;1600919;72;1128;-57
2022/06/10 08:09:00;;;;;;;;;;;24.10;45.70;;;;;;1607175;72;765;-57
2022/06/10 08:11:01;;;;;;;;;;;24.10;45.60;;;;;;1599682;72;721;-59
2022/06/10 08:13:04;;;;;;;;;;;24.20;45.70;;;;;;1607579;72;765;-60
2022/06/10 08:15:06;;;;;;;;;;;24.10;45.70;;;;;;1625334;72;1894;-60
2022/06/10 08:17:08;;;;;;;;;;;24.20;45.60;;;;;;1606386;72;1714;-60
2022/06/10 08:19:10;;;;;;;;;;;24.20;45.60;;;;;;1600819;72;796;-60
2022/06/10 08:23:33;;;;;;;;;;;24.20;45.60;;;;;;1563503;75;922;-61
2022/06/10 08:25:35;;;;;;;;;;;24.10;45.50;;;;;;1561705;75;1153;-61
2022/06/10 08:27:37;;;;;;;;;;;24.20;45.50;;;;;;1564672;74;855;-59
2022/06/10 08:29:39;;;;;;;;;;;24.20;45.50;;;;;;1600976;72;1494;-56
2022/06/10 08:31:41;;;;;;;;;;;24.20;45.50;;;;;;1613947;73;733;-60
2022/06/10 08:33:43;;;;;;;;;;;24.20;45.50;;;;;;1607408;73;795;-59
2022/06/10 08:35:46;;;;;;;;;;;24.20;45.50;;;;;;1614793;72;1975;-60
2022/06/10 08:37:48;;;;;;;;;;;24.20;45.40;;;;;;1613209;72;713;-61
2022/06/10 08:39:50;;;;;;;;;;;24.20;45.40;;;;;;1607823;72;792;-58
2022/06/10 08:41:53;;;;;;;;;;;24.20;45.30;;;;;;1615149;72;758;-59
2022/06/10 08:44:00;;;;;;;;;;;24.20;45.30;;;;;;1614754;72;1508;-59
2022/06/10 08:46:06;;;;;;;;;;;24.20;45.40;;;;;;1613253;72;1118;-61
2022/06/10 08:48:10;;;;;;;;;;;24.20;45.40;;;;;;1615441;72;1945;-60
2022/06/10 08:50:16;;;;;;;;;;;24.20;45.30;;;;;;1610559;72;775;-60
2022/06/10 08:52:23;;;;;;;;;;;24.20;45.40;;;;;;1619496;72;813;-60
2022/06/10 08:54:26;;;;;;;;;;;24.20;45.30;;;;;;1603678;72;1945;-60
2022/06/10 08:56:28;;;;;;;;;;;24.20;45.30;;;;;;1611072;72;1103;-58
2022/06/10 08:58:47;;;;;;;;;;;24.20;45.30;;;;;;1612344;72;1513;-60
2022/06/10 09:00:49;;;;;;;;;;;24.20;45.20;;;;;;1556971;74;975;-61
2022/06/10 09:02:58;;;;;;;;;;;24.20;45.20;;;;;;1573811;73;939;-60
2022/06/10 09:05:02;;;;;;;;;;;24.20;45.20;;;;;;1613787;72;802;-60
2022/06/10 09:07:05;;;;;;;;;;;24.20;45.20;;;;;;1612946;72;1163;-59
2022/06/10 09:09:08;;;;;;;;;;;24.20;45.20;;;;;;1612179;72;771;-61
2022/06/10 09:11:23;;;;;;;;;;;24.20;45.20;;;;;;1605502;72;732;-59
2022/06/10 09:13:41;;;;;;;;;;;24.20;45.20;;;;;;1618402;72;2100;-60
2022/06/10 09:15:47;;;;;;;;;;;24.20;45.20;;;;;;1613075;72;1932;-58
2022/06/10 09:17:54;;;;;;;;;;;24.20;45.20;;;;;;1602556;72;725;-59
2022/06/10 09:20:06;;;;;;;;;;;24.30;45.30;;;;;;1619026;72;762;-57
2022/06/10 09:22:13;;;;;;;;;;;24.20;45.10;;;;;;1624415;72;1157;-58
2022/06/10 09:24:16;;;;;;;;;;;24.20;45.20;;;;;;1611267;72;717;-60
2022/06/10 09:26:20;;;;;;;;;;;24.20;45.10;;;;;;1616934;72;1550;-60
2022/06/10 09:28:22;;;;;;;;;;;24.20;45.10;;;;;;1616921;72;1048;-58
2022/06/10 09:30:29;;;;;;;;;;;24.30;45.20;;;;;;1628155;72;806;-58
2022/06/10 09:32:32;;;;;;;;;;;24.20;45.00;;;;;;1619365;72;1885;-59
2022/06/10 09:34:48;;;;;;;;;;;24.30;45.10;;;;;;1604977;72;1969;-61
2022/06/10 09:37:06;;;;;;;;;;;24.30;45.10;;;;;;1610870;72;1939;-60
2022/06/10 09:41:48;;;;;;;;;;;24.20;44.90;;;;;;1614255;72;1705;-60
2022/06/10 09:43:57;;;;;;;;;;;24.30;45.00;;;;;;1607497;72;761;-59
2022/06/10 09:46:16;;;;;;;;;;;24.30;45.10;;;;;;1615361;72;1142;-56
2022/06/10 09:48:38;;;;;;;;;;;24.30;45.00;;;;;;1617733;72;766;-60
2022/06/10 09:50:51;;;;;;;;;;;24.30;45.00;;;;;;1507910;76;1014;-60
2022/06/10 09:53:00;;;;;;;;;;;24.40;45.10;;;;;;1510933;77;754;-60
2022/06/10 09:55:03;;;;;;;;;;;24.40;45.00;;;;;;1498958;77;1944;-56
2022/06/10 09:57:19;;;;;;;;;;;24.30;44.90;;;;;;1617828;71;1135;-60
2022/06/10 09:59:39;;;;;;;;;;;24.40;44.90;;;;;;1611898;73;812;-60
2022/06/10 10:01:43;;;;;;;;;;;24.30;44.90;;;;;;1604419;72;784;-58
2022/06/10 10:03:46;;;;;;;;;;;24.30;44.80;;;;;;1584287;73;939;-61
2022/06/10 10:06:05;;;;;;;;;;;24.30;44.90;;;;;;1605713;72;1164;-60
2022/06/10 10:08:16;;;;;;;;;;;24.30;44.80;;;;;;1616185;72;1902;-60
2022/06/10 10:10:36;;;;;;;;;;;24.30;44.80;;;;;;1592612;72;1137;-58
2022/06/10 10:12:43;;;;;;;;;;;24.40;44.90;;;;;;1613944;72;817;-59
2022/06/10 10:15:03;;;;;;;;;;;24.30;44.80;;;;;;1606219;72;1913;-60
2022/06/10 10:17:06;;;;;;;;;;;24.40;44.90;;;;;;1606677;72;1087;-60
2022/06/10 10:19:18;;;;;;;;;;;24.40;44.90;;;;;;1613680;72;1498;-58
2022/06/10 10:21:22;;;;;;;;;;;24.20;44.70;;;;;;1615739;72;681;-57
2022/06/10 10:23:31;;;;;;;;;;;24.30;44.80;;;;;;1599524;72;1569;-60
2022/06/10 10:25:33;;;;;;;;;;;24.30;44.80;;;;;;1604447;72;1117;-60
2022/06/10 10:27:35;;;;;;;;;;;24.30;44.70;;;;;;1623700;72;691;-60
2022/06/10 10:29:38;;;;;;;;;;;24.20;44.60;;;;;;1611016;72;732;-59
2022/06/10 10:31:45;;;;;;;;;;;24.30;44.80;;;;;;1609717;72;714;-56
2022/06/10 10:33:46;;;;;;;;;;;24.20;44.70;;;;;;1612828;72;1871;-59
2022/06/10 10:35:50;;;;;;;;;;;24.20;44.70;;;;;;1622734;72;1943;-59
2022/06/10 10:37:54;;;;;;;;;;;24.20;44.70;;;;;;1613904;72;1666;-61
2022/06/10 10:40:00;;;;;;;;;;;24.20;44.10;;;;;;1611245;72;740;-60
2022/06/10 10:42:16;;;;;;;;;;;24.20;44.60;;;;;;1615058;72;767;-59
2022/06/10 10:44:25;;;;;;;;;;;24.20;44.50;;;;;;1614307;72;766;-57
2022/06/10 10:46:32;;;;;;;;;;;24.20;44.50;;;;;;1622347;72;1150;-59
2022/06/10 10:48:41;;;;;;;;;;;24.20;44.60;;;;;;1614523;72;720;-60
2022/06/10 10:50:45;;;;;;;;;;;24.20;44.50;;;;;;1579336;73;1513;-60
2022/06/10 10:52:47;;;;;;;;;;;24.10;44.50;;;;;;1615833;71;1904;-56
2022/06/10 10:54:51;;;;;;;;;;;24.10;44.40;;;;;;1610529;72;1934;-59
2022/06/10 10:56:53;;;;;;;;;;;24.10;44.40;;;;;;1588618;72;1157;-57
2022/06/10 10:58:55;;;;;;;;;;;24.00;44.30;;;;;;1622056;72;750;-59
2022/06/10 11:00:57;;;;;;;;;;;24.10;44.40;;;;;;1611303;72;708;-59
2022/06/10 11:03:03;;;;;;;;;;;24.00;44.30;;;;;;1620483;72;736;-57
2022/06/10 11:05:18;;;;;;;;;;;24.10;44.40;;;;;;1616722;72;1554;-57
2022/06/10 11:07:22;;;;;;;;;;;24.00;44.20;;;;;;1592037;72;1100;-58
2022/06/10 11:09:24;;;;;;;;;;;24.00;44.20;;;;;;1603458;72;818;-58
2022/06/10 11:11:30;;;;;;;;;;;24.00;44.20;;;;;;1608017;72;709;-56
2022/06/10 11:13:37;;;;;;;;;;;24.10;44.20;;;;;;1611611;72;1871;-57
2022/06/10 11:15:39;;;;;;;;;;;24.10;44.20;;;;;;1602571;72;1940;-58
2022/06/10 11:17:41;;;;;;;;;;;24.00;44.10;;;;;;1614768;72;797;-57
2022/06/10 11:19:57;;;;;;;;;;;24.00;43.90;;;;;;1613518;72;1509;-59
2022/06/10 11:22:03;;;;;;;;;;;24.00;44.00;;;;;;1610303;72;771;-56
2022/06/10 11:24:07;;;;;;;;;;;24.00;43.90;;;;;;1610433;72;781;-57
2022/06/10 11:26:12;;;;;;;;;;;24.00;43.90;;;;;;1614201;72;1203;-59
2022/06/10 11:28:18;;;;;;;;;;;24.00;44.00;;;;;;1615112;72;739;-59
2022/06/10 11:30:21;;;;;;;;;;;23.90;44.00;;;;;;1618120;72;679;-58
2022/06/10 11:32:24;;;;;;;;;;;23.90;43.90;;;;;;1613707;72;684;-56
2022/06/10 11:34:26;;;;;;;;;;;24.00;43.90;;;;;;1615491;72;777;-59
2022/06/10 11:36:29;;;;;;;;;;;24.00;43.90;;;;;;1610974;72;1931;-56
2022/06/10 11:38:32;;;;;;;;;;;24.00;43.90;;;;;;1587883;73;1206;-59
2022/06/10 11:40:41;;;;;;;;;;;24.00;43.70;;;;;;1613078;72;714;-60
2022/06/10 11:42:47;;;;;;;;;;;24.00;43.60;;;;;;1599269;72;1015;-60
2022/06/10 11:45:09;;;;;;;;;;;24.00;43.60;;;;;;1624316;72;776;-59
2022/06/10 11:47:13;;;;;;;;;;;24.00;43.60;;;;;;1622015;72;1616;-57
2022/06/10 11:49:19;;;;;;;;;;;24.00;43.40;;;;;;1613562;72;680;-57
2022/06/10 11:51:41;;;;;;;;;;;24.00;43.40;;;;;;1612540;72;1946;-57
2022/06/10 11:54:00;;;;;;;;;;;24.00;43.40;;;;;;1614714;72;1847;-56
2022/06/10 12:00:59;;;;;;;;;;;24.00;43.30;;;;;;1600977;72;1685;-59
2022/06/10 12:03:15;;;;;;;;;;;24.00;43.20;;;;;;1568291;74;1263;-57
2022/06/10 12:05:21;;;;;;;;;;;24.00;43.10;;;;;;1602751;72;981;-58
2022/06/10 12:07:23;;;;;;;;;;;24.00;43.10;;;;;;1613979;72;1170;-59
2022/06/10 12:09:39;;;;;;;;;;;24.00;43.10;;;;;;1611528;72;753;-59
2022/06/10 12:11:42;;;;;;;;;;;24.00;43.10;;;;;;1607894;72;739;-56
2022/06/10 12:13:51;;;;;;;;;;;24.00;42.80;;;;;;1613935;72;724;-59
2022/06/10 12:15:55;;;;;;;;;;;24.00;42.80;;;;;;1609858;72;1927;-58
2022/06/10 12:17:57;;;;;;;;;;;24.00;42.80;;;;;;1614042;72;1216;-59
2022/06/10 12:20:04;;;;;;;;;;;24.00;42.80;;;;;;1599388;72;829;-56
2022/06/10 12:22:08;;;;;;;;;;;24.10;42.90;;;;;;1611487;72;865;-58
2022/06/10 12:24:11;;;;;;;;;;;24.00;42.80;;;;;;1602414;72;823;-57
2022/06/10 12:26:15;;;;;;;;;;;24.00;42.80;;;;;;1614972;72;1164;-60
2022/06/10 12:28:37;;;;;;;;;;;24.00;42.70;;;;;;1612600;72;767;-59
2022/06/10 12:30:43;;;;;;;;;;;24.00;42.80;;;;;;1614342;72;753;-58
2022/06/10 12:32:47;;;;;;;;;;;24.00;42.60;;;;;;1602945;72;783;-59
2022/06/10 12:34:50;;;;;;;;;;;24.10;42.80;;;;;;1624116;72;659;-57
2022/06/10 12:36:54;;;;;;;;;;;24.10;42.80;;;;;;1613017;72;1908;-58
2022/06/10 12:38:56;;;;;;;;;;;24.00;42.70;;;;;;1606192;72;1888;-60
2022/06/10 12:40:58;;;;;;;;;;;24.10;42.80;;;;;;1603626;72;710;-58